sensor_id;sensor_type;location;lat;lon;timestamp;pressure;altitude;pressure_sealevel;temperature
69857;BMP280;57147;53.582;10.112;2022-10-26T00:03:45;101477.00;;;9.42
69857;BMP280;57147;53.582;10.112;2022-10-26T00:08:48;101484.91;;;9.17
69857;BMP280;57147;53.582;10.112;2022-10-26T00:13:49;101482.81;;;9.29
69857;BMP280;57147;53.582;10.112;2022-10-26T00:18:49;101487.59;;;9.42
69857;BMP280;57147;53.582;10.112;2022-10-26T00:23:52;101470.88;;;9.41
69857;BMP280;57147;53.582;10.112;2022-10-26T00:28:53;101491.84;;;9.48
69857;BMP280;57147;53.582;10.112;2022-10-26T00:33:55;101486.00;;;9.41
69857;BMP280;57147;53.582;10.112;2022-10-26T00:38:58;101491.03;;;9.37
69857;BMP280;57147;53.582;10.112;2022-10-26T00:43:59;101486.50;;;9.33
69857;BMP280;57147;53.582;10.112;2022-10-26T00:49:02;101497.63;;;9.25
69857;BMP280;57147;53.582;10.112;2022-10-26T00:54:09;101498.41;;;9.25
69857;BMP280;57147;53.582;10.112;2022-10-26T00:59:12;101492.84;;;9.22
69857;BMP280;57147;53.582;10.112;2022-10-26T01:04:14;101494.44;;;9.12
69857;BMP280;57147;53.582;10.112;2022-10-26T01:09:18;101488.00;;;8.88
69857;BMP280;57147;53.582;10.112;2022-10-26T01:14:20;101482.91;;;8.71
69857;BMP280;57147;53.582;10.112;2022-10-26T01:19:49;101485.34;;;8.88
69857;BMP280;57147;53.582;10.112;2022-10-26T01:25:03;101475.84;;;8.97
69857;BMP280;57147;53.582;10.112;2022-10-26T01:30:18;101479.00;;;8.89
69857;BMP280;57147;53.582;10.112;2022-10-26T01:35:24;101467.56;;;8.79
69857;BMP280;57147;53.582;10.112;2022-10-26T01:40:31;101471.03;;;8.84
69857;BMP280;57147;53.582;10.112;2022-10-26T01:45:39;101473.16;;;8.87
69857;BMP280;57147;53.582;10.112;2022-10-26T01:50:42;101476.88;;;8.91
69857;BMP280;57147;53.582;10.112;2022-10-26T01:55:47;101478.97;;;8.79
69857;BMP280;57147;53.582;10.112;2022-10-26T02:00:57;101427.13;;;8.36
69857;BMP280;57147;53.582;10.112;2022-10-26T02:06:05;101469.38;;;8.68
69857;BMP280;57147;53.582;10.112;2022-10-26T02:11:13;101467.28;;;8.75
69857;BMP280;57147;53.582;10.112;2022-10-26T02:16:23;101465.63;;;8.64
69857;BMP280;57147;53.582;10.112;2022-10-26T02:21:27;101463.53;;;8.66
69857;BMP280;57147;53.582;10.112;2022-10-26T02:26:29;101468.88;;;8.76
69857;BMP280;57147;53.582;10.112;2022-10-26T02:31:34;101463.59;;;8.76
69857;BMP280;57147;53.582;10.112;2022-10-26T02:36:39;101465.06;;;8.57
69857;BMP280;57147;53.582;10.112;2022-10-26T02:41:43;101461.56;;;8.41
69857;BMP280;57147;53.582;10.112;2022-10-26T02:46:47;101452.88;;;8.56
69857;BMP280;57147;53.582;10.112;2022-10-26T02:51:51;101453.97;;;8.60
69857;BMP280;57147;53.582;10.112;2022-10-26T02:56:56;101449.19;;;8.57
69857;BMP280;57147;53.582;10.112;2022-10-26T03:02:01;101449.19;;;8.57
69857;BMP280;57147;53.582;10.112;2022-10-26T03:07:02;101451.88;;;8.62
69857;BMP280;57147;53.582;10.112;2022-10-26T03:12:03;101458.72;;;8.53
69857;BMP280;57147;53.582;10.112;2022-10-26T03:17:06;101446.53;;;8.52
69857;BMP280;57147;53.582;10.112;2022-10-26T03:22:07;101455.00;;;8.54
69857;BMP280;57147;53.582;10.112;2022-10-26T03:27:07;101453.69;;;8.56
69857;BMP280;57147;53.582;10.112;2022-10-26T03:32:11;101427.22;;;8.56
69857;BMP280;57147;53.582;10.112;2022-10-26T03:37:11;101442.25;;;8.46
69857;BMP280;57147;53.582;10.112;2022-10-26T03:42:12;101443.84;;;8.47
69857;BMP280;57147;53.582;10.112;2022-10-26T03:47:15;101452.81;;;8.41
69857;BMP280;57147;53.582;10.112;2022-10-26T03:52:16;101449.56;;;8.23
69857;BMP280;57147;53.582;10.112;2022-10-26T03:57:16;101457.09;;;8.05
69857;BMP280;57147;53.582;10.112;2022-10-26T04:02:20;101451.59;;;8.11
69857;BMP280;57147;53.582;10.112;2022-10-26T04:07:20;101441.88;;;8.22
69857;BMP280;57147;53.582;10.112;2022-10-26T04:12:21;101443.19;;;8.19
69857;BMP280;57147;53.582;10.112;2022-10-26T04:17:25;101438.84;;;8.03
69857;BMP280;57147;53.582;10.112;2022-10-26T04:22:25;101455.81;;;8.07
69857;BMP280;57147;53.582;10.112;2022-10-26T04:27:26;101445.31;;;8.17
69857;BMP280;57147;53.582;10.112;2022-10-26T04:32:29;101445.81;;;8.14
69857;BMP280;57147;53.582;10.112;2022-10-26T04:37:30;101446.81;;;8.08
69857;BMP280;57147;53.582;10.112;2022-10-26T04:42:30;101435.16;;;8.04
69857;BMP280;57147;53.582;10.112;2022-10-26T04:47:33;101438.59;;;8.05
69857;BMP280;57147;53.582;10.112;2022-10-26T04:52:34;101438.56;;;7.99
69857;BMP280;57147;53.582;10.112;2022-10-26T04:57:35;101428.25;;;7.98
69857;BMP280;57147;53.582;10.112;2022-10-26T05:02:38;101435.03;;;7.89
69857;BMP280;57147;53.582;10.112;2022-10-26T05:07:39;101438.25;;;7.96
69857;BMP280;57147;53.582;10.112;2022-10-26T05:12:39;101439.88;;;7.97
69857;BMP280;57147;53.582;10.112;2022-10-26T05:17:43;101440.91;;;7.96
69857;BMP280;57147;53.582;10.112;2022-10-26T05:22:51;101439.72;;;7.82
69857;BMP280;57147;53.582;10.112;2022-10-26T05:27:56;101426.19;;;7.73
69857;BMP280;57147;53.582;10.112;2022-10-26T05:33:00;101421.19;;;7.77
69857;BMP280;57147;53.582;10.112;2022-10-26T05:38:05;101419.44;;;7.87
69857;BMP280;57147;53.582;10.112;2022-10-26T05:43:06;101425.13;;;7.74
69857;BMP280;57147;53.582;10.112;2022-10-26T05:48:09;101421.66;;;7.69
69857;BMP280;57147;53.582;10.112;2022-10-26T05:53:10;101440.50;;;7.77
69857;BMP280;57147;53.582;10.112;2022-10-26T05:58:12;101443.44;;;7.81
69857;BMP280;57147;53.582;10.112;2022-10-26T06:03:24;101447.97;;;7.85
69857;BMP280;57147;53.582;10.112;2022-10-26T06:08:29;101452.16;;;7.54
69857;BMP280;57147;53.582;10.112;2022-10-26T06:13:30;101453.31;;;7.63
69857;BMP280;57147;53.582;10.112;2022-10-26T06:18:41;101444.69;;;7.73
69857;BMP280;57147;53.582;10.112;2022-10-26T06:23:51;101445.47;;;7.74
69857;BMP280;57147;53.582;10.112;2022-10-26T06:28:59;101457.66;;;7.75
69857;BMP280;57147;53.582;10.112;2022-10-26T06:34:05;101454.50;;;7.78
69857;BMP280;57147;53.582;10.112;2022-10-26T06:39:09;101457.25;;;7.88
69857;BMP280;57147;53.582;10.112;2022-10-26T06:44:18;101467.03;;;7.87
69857;BMP280;57147;53.582;10.112;2022-10-26T06:49:27;101469.19;;;7.95
69857;BMP280;57147;53.582;10.112;2022-10-26T06:54:40;101471.06;;;8.00
69857;BMP280;57147;53.582;10.112;2022-10-26T06:59:48;101473.19;;;7.98
69857;BMP280;57147;53.582;10.112;2022-10-26T07:04:52;101461.50;;;7.94
69857;BMP280;57147;53.582;10.112;2022-10-26T07:09:52;101474.06;;;8.09
69857;BMP280;57147;53.582;10.112;2022-10-26T07:14:53;101464.34;;;8.19
69857;BMP280;57147;53.582;10.112;2022-10-26T07:19:56;101471.81;;;8.32
69857;BMP280;57147;53.582;10.112;2022-10-26T07:24:57;101480.84;;;8.36
69857;BMP280;57147;53.582;10.112;2022-10-26T07:29:57;101471.91;;;8.48
69857;BMP280;57147;53.582;10.112;2022-10-26T07:35:01;101474.59;;;8.58
69857;BMP280;57147;53.582;10.112;2022-10-26T07:40:01;101481.56;;;8.74
69857;BMP280;57147;53.582;10.112;2022-10-26T07:45:03;101475.03;;;8.87
69857;BMP280;57147;53.582;10.112;2022-10-26T07:50:07;101469.97;;;8.90
69857;BMP280;57147;53.582;10.112;2022-10-26T07:55:09;101465.53;;;9.01
69857;BMP280;57147;53.582;10.112;2022-10-26T08:00:11;101468.75;;;9.18
69857;BMP280;57147;53.582;10.112;2022-10-26T08:05:15;101461.06;;;9.22
69857;BMP280;57147;53.582;10.112;2022-10-26T08:10:16;101478.31;;;9.44
69857;BMP280;57147;53.582;10.112;2022-10-26T08:15:16;101482.31;;;9.52
69857;BMP280;57147;53.582;10.112;2022-10-26T08:20:19;101484.97;;;9.67
69857;BMP280;57147;53.582;10.112;2022-10-26T08:25:20;101484.44;;;9.80
69857;BMP280;57147;53.582;10.112;2022-10-26T08:30:21;101473.03;;;9.90
69857;BMP280;57147;53.582;10.112;2022-10-26T08:35:24;101489.19;;;10.04
69857;BMP280;57147;53.582;10.112;2022-10-26T08:40:26;101492.38;;;10.16
69857;BMP280;57147;53.582;10.112;2022-10-26T08:45:32;101485.97;;;10.32
69857;BMP280;57147;53.582;10.112;2022-10-26T08:50:40;101468.13;;;10.48
69857;BMP280;57147;53.582;10.112;2022-10-26T08:55:43;101466.75;;;10.60
69857;BMP280;57147;53.582;10.112;2022-10-26T09:00:46;101471.47;;;10.73
69857;BMP280;57147;53.582;10.112;2022-10-26T09:06:06;101474.59;;;10.86
69857;BMP280;57147;53.582;10.112;2022-10-26T09:11:16;101454.63;;;10.93
69857;BMP280;57147;53.582;10.112;2022-10-26T09:16:26;101456.38;;;11.08
69857;BMP280;57147;53.582;10.112;2022-10-26T09:21:39;101466.41;;;11.21
69857;BMP280;57147;53.582;10.112;2022-10-26T09:26:52;101468.97;;;11.36
69857;BMP280;57147;53.582;10.112;2022-10-26T09:31:54;101464.56;;;11.56
69857;BMP280;57147;53.582;10.112;2022-10-26T09:36:59;101451.72;;;11.63
69857;BMP280;57147;53.582;10.112;2022-10-26T09:42:02;101473.28;;;11.90
69857;BMP280;57147;53.582;10.112;2022-10-26T09:47:13;101477.38;;;12.06
69857;BMP280;57147;53.582;10.112;2022-10-26T09:52:16;101478.28;;;12.20
69857;BMP280;57147;53.582;10.112;2022-10-26T09:57:18;101494.88;;;12.36
69857;BMP280;57147;53.582;10.112;2022-10-26T10:02:36;101495.16;;;12.58
69857;BMP280;57147;53.582;10.112;2022-10-26T10:07:39;101490.47;;;12.69
69857;BMP280;57147;53.582;10.112;2022-10-26T10:12:40;101500.84;;;12.89
69857;BMP280;57147;53.582;10.112;2022-10-26T10:17:46;101504.91;;;13.05
69857;BMP280;57147;53.582;10.112;2022-10-26T10:22:58;101494.94;;;13.30
69857;BMP280;57147;53.582;10.112;2022-10-26T10:27:58;101509.19;;;13.39
69857;BMP280;57147;53.582;10.112;2022-10-26T10:33:09;101502.13;;;13.48
69857;BMP280;57147;53.582;10.112;2022-10-26T10:38:16;101514.75;;;13.56
69857;BMP280;57147;53.582;10.112;2022-10-26T10:43:18;101518.84;;;13.67
69857;BMP280;57147;53.582;10.112;2022-10-26T10:48:21;101515.84;;;13.87
69857;BMP280;57147;53.582;10.112;2022-10-26T10:53:31;101515.63;;;13.97
69857;BMP280;57147;53.582;10.112;2022-10-26T10:58:38;101516.84;;;14.19
69857;BMP280;57147;53.582;10.112;2022-10-26T11:04:02;101504.75;;;14.35
69857;BMP280;57147;53.582;10.112;2022-10-26T11:09:13;101512.81;;;14.57
69857;BMP280;57147;53.582;10.112;2022-10-26T11:14:17;101498.88;;;14.60
69857;BMP280;57147;53.582;10.112;2022-10-26T11:19:23;101511.97;;;14.84
69857;BMP280;57147;53.582;10.112;2022-10-26T11:24:33;101476.53;;;14.78
69857;BMP280;57147;53.582;10.112;2022-10-26T11:29:39;101519.13;;;15.11
69857;BMP280;57147;53.582;10.112;2022-10-26T11:34:46;101506.00;;;15.01
69857;BMP280;57147;53.582;10.112;2022-10-26T11:40:00;101510.50;;;15.14
69857;BMP280;57147;53.582;10.112;2022-10-26T11:45:08;101518.06;;;15.43
69857;BMP280;57147;53.582;10.112;2022-10-26T11:50:16;101520.25;;;15.71
69857;BMP280;57147;53.582;10.112;2022-10-26T11:55:21;101517.19;;;15.87
69857;BMP280;57147;53.582;10.112;2022-10-26T12:00:22;101518.03;;;15.96
69857;BMP280;57147;53.582;10.112;2022-10-26T12:05:31;101517.59;;;16.11
69857;BMP280;57147;53.582;10.112;2022-10-26T12:10:38;101525.84;;;16.40
69857;BMP280;57147;53.582;10.112;2022-10-26T12:15:41;101517.63;;;16.28
69857;BMP280;57147;53.582;10.112;2022-10-26T12:21:04;101525.06;;;16.48
69857;BMP280;57147;53.582;10.112;2022-10-26T12:26:38;101536.59;;;16.57
69857;BMP280;57147;53.582;10.112;2022-10-26T12:31:42;101533.63;;;16.76
69857;BMP280;57147;53.582;10.112;2022-10-26T12:36:47;101542.94;;;16.96
69857;BMP280;57147;53.582;10.112;2022-10-26T12:41:55;101550.59;;;17.32
69857;BMP280;57147;53.582;10.112;2022-10-26T12:46:56;101547.91;;;17.40
69857;BMP280;57147;53.582;10.112;2022-10-26T12:51:57;101546.94;;;17.53
69857;BMP280;57147;53.582;10.112;2022-10-26T12:57:09;101541.22;;;17.64
69857;BMP280;57147;53.582;10.112;2022-10-26T13:02:43;101559.69;;;17.57
69857;BMP280;57147;53.582;10.112;2022-10-26T13:07:48;101546.28;;;17.57
69857;BMP280;57147;53.582;10.112;2022-10-26T13:12:53;101546.38;;;17.69
69857;BMP280;57147;53.582;10.112;2022-10-26T13:17:58;101537.34;;;17.82
69857;BMP280;57147;53.582;10.112;2022-10-26T13:22:59;101538.53;;;17.93
69857;BMP280;57147;53.582;10.112;2022-10-26T13:28:05;101534.06;;;17.97
69857;BMP280;57147;53.582;10.112;2022-10-26T13:33:12;101544.16;;;18.09
69857;BMP280;57147;53.582;10.112;2022-10-26T13:38:17;101537.38;;;18.02
69857;BMP280;57147;53.582;10.112;2022-10-26T13:43:23;101531.56;;;17.92
69857;BMP280;57147;53.582;10.112;2022-10-26T13:48:30;101537.88;;;17.96
69857;BMP280;57147;53.582;10.112;2022-10-26T13:53:37;101543.63;;;17.86
69857;BMP280;57147;53.582;10.112;2022-10-26T13:58:44;101538.78;;;17.79
69857;BMP280;57147;53.582;10.112;2022-10-26T14:03:47;101528.25;;;17.66
69857;BMP280;57147;53.582;10.112;2022-10-26T14:08:50;101520.34;;;17.61
69857;BMP280;57147;53.582;10.112;2022-10-26T14:13:54;101531.75;;;17.58
69857;BMP280;57147;53.582;10.112;2022-10-26T14:18:55;101540.44;;;17.46
69857;BMP280;57147;53.582;10.112;2022-10-26T14:23:57;101546.34;;;17.39
69857;BMP280;57147;53.582;10.112;2022-10-26T14:29:01;101548.84;;;17.44
69857;BMP280;57147;53.582;10.112;2022-10-26T14:34:03;101552.78;;;17.38
69857;BMP280;57147;53.582;10.112;2022-10-26T14:39:06;101558.16;;;17.38
69857;BMP280;57147;53.582;10.112;2022-10-26T14:44:16;101564.63;;;17.37
69857;BMP280;57147;53.582;10.112;2022-10-26T14:49:19;101564.97;;;17.27
69857;BMP280;57147;53.582;10.112;2022-10-26T14:54:22;101570.50;;;17.14
69857;BMP280;57147;53.582;10.112;2022-10-26T14:59:27;101579.06;;;16.81
69857;BMP280;57147;53.582;10.112;2022-10-26T15:04:31;101577.63;;;16.67
69857;BMP280;57147;53.582;10.112;2022-10-26T15:09:38;101585.28;;;16.34
69857;BMP280;57147;53.582;10.112;2022-10-26T15:14:41;101591.56;;;16.29
69857;BMP280;57147;53.582;10.112;2022-10-26T15:19:43;101591.97;;;16.14
69857;BMP280;57147;53.582;10.112;2022-10-26T15:24:44;101593.31;;;15.94
69857;BMP280;57147;53.582;10.112;2022-10-26T15:30:08;101593.06;;;15.73
69857;BMP280;57147;53.582;10.112;2022-10-26T15:35:21;101586.25;;;15.67
69857;BMP280;57147;53.582;10.112;2022-10-26T15:40:23;101586.03;;;15.55
69857;BMP280;57147;53.582;10.112;2022-10-26T15:45:29;101601.69;;;15.48
69857;BMP280;57147;53.582;10.112;2022-10-26T15:50:30;101595.97;;;15.41
69857;BMP280;57147;53.582;10.112;2022-10-26T15:55:31;101572.91;;;15.23
69857;BMP280;57147;53.582;10.112;2022-10-26T16:00:34;101595.50;;;15.17
69857;BMP280;57147;53.582;10.112;2022-10-26T16:05:35;101578.94;;;14.93
69857;BMP280;57147;53.582;10.112;2022-10-26T16:10:35;101606.84;;;14.86
69857;BMP280;57147;53.582;10.112;2022-10-26T16:15:39;101586.06;;;14.70
69857;BMP280;57147;53.582;10.112;2022-10-26T16:20:40;101593.81;;;14.71
69857;BMP280;57147;53.582;10.112;2022-10-26T16:25:42;101596.47;;;14.58
69857;BMP280;57147;53.582;10.112;2022-10-26T16:30:45;101591.41;;;14.56
69857;BMP280;57147;53.582;10.112;2022-10-26T16:35:54;101610.53;;;14.63
69857;BMP280;57147;53.582;10.112;2022-10-26T16:40:59;101615.38;;;14.61
69857;BMP280;57147;53.582;10.112;2022-10-26T16:46:07;101621.81;;;14.60
69857;BMP280;57147;53.582;10.112;2022-10-26T16:51:10;101619.84;;;14.52
69857;BMP280;57147;53.582;10.112;2022-10-26T16:56:14;101624.50;;;14.33
69857;BMP280;57147;53.582;10.112;2022-10-26T17:01:19;101617.53;;;14.18
69857;BMP280;57147;53.582;10.112;2022-10-26T17:06:20;101615.50;;;13.96
69857;BMP280;57147;53.582;10.112;2022-10-26T17:11:21;101626.56;;;13.90
69857;BMP280;57147;53.582;10.112;2022-10-26T17:16:24;101621.19;;;13.76
69857;BMP280;57147;53.582;10.112;2022-10-26T17:21:30;101637.69;;;13.78
69857;BMP280;57147;53.582;10.112;2022-10-26T17:26:30;101662.47;;;13.65
69857;BMP280;57147;53.582;10.112;2022-10-26T17:31:34;101664.63;;;13.63
69857;BMP280;57147;53.582;10.112;2022-10-26T17:36:36;101663.81;;;13.63
69857;BMP280;57147;53.582;10.112;2022-10-26T17:41:37;101658.63;;;13.52
69857;BMP280;57147;53.582;10.112;2022-10-26T17:46:40;101665.06;;;13.51
69857;BMP280;57147;53.582;10.112;2022-10-26T17:51:40;101689.84;;;13.52
69857;BMP280;57147;53.582;10.112;2022-10-26T17:56:41;101694.78;;;13.45
69857;BMP280;57147;53.582;10.112;2022-10-26T18:01:44;101703.66;;;13.40
69857;BMP280;57147;53.582;10.112;2022-10-26T18:06:45;101693.03;;;13.54
69857;BMP280;57147;53.582;10.112;2022-10-26T18:11:45;101707.44;;;13.72
69857;BMP280;57147;53.582;10.112;2022-10-26T18:16:48;101718.28;;;13.80
69857;BMP280;57147;53.582;10.112;2022-10-26T18:21:49;101720.38;;;13.83
69857;BMP280;57147;53.582;10.112;2022-10-26T18:26:50;101734.59;;;13.79
69857;BMP280;57147;53.582;10.112;2022-10-26T18:31:53;101732.56;;;13.89
69857;BMP280;57147;53.582;10.112;2022-10-26T18:36:54;101743.03;;;13.86
69857;BMP280;57147;53.582;10.112;2022-10-26T18:41:54;101753.13;;;13.89
69857;BMP280;57147;53.582;10.112;2022-10-26T18:46:57;101757.31;;;13.95
69857;BMP280;57147;53.582;10.112;2022-10-26T18:51:58;101761.88;;;13.94
69857;BMP280;57147;53.582;10.112;2022-10-26T18:56:59;101765.63;;;13.93
69857;BMP280;57147;53.582;10.112;2022-10-26T19:02:02;101775.81;;;13.91
69857;BMP280;57147;53.582;10.112;2022-10-26T19:07:02;101783.16;;;13.81
69857;BMP280;57147;53.582;10.112;2022-10-26T19:12:03;101782.81;;;13.87
69857;BMP280;57147;53.582;10.112;2022-10-26T19:17:06;101785.59;;;13.77
69857;BMP280;57147;53.582;10.112;2022-10-26T19:22:07;101787.31;;;13.68
69857;BMP280;57147;53.582;10.112;2022-10-26T19:27:08;101796.59;;;13.52
69857;BMP280;57147;53.582;10.112;2022-10-26T19:32:11;101793.22;;;13.46
69857;BMP280;57147;53.582;10.112;2022-10-26T19:37:11;101799.44;;;13.37
69857;BMP280;57147;53.582;10.112;2022-10-26T19:42:12;101801.72;;;13.25
69857;BMP280;57147;53.582;10.112;2022-10-26T19:47:15;101808.16;;;13.24
69857;BMP280;57147;53.582;10.112;2022-10-26T19:52:15;101815.56;;;13.27
69857;BMP280;57147;53.582;10.112;2022-10-26T19:57:16;101813.97;;;13.26
69857;BMP280;57147;53.582;10.112;2022-10-26T20:02:20;101818.28;;;13.22
69857;BMP280;57147;53.582;10.112;2022-10-26T20:07:20;101820.75;;;13.13
69857;BMP280;57147;53.582;10.112;2022-10-26T20:12:21;101832.09;;;13.00
69857;BMP280;57147;53.582;10.112;2022-10-26T20:17:24;101834.03;;;12.94
69857;BMP280;57147;53.582;10.112;2022-10-26T20:22:25;101832.75;;;12.87
69857;BMP280;57147;53.582;10.112;2022-10-26T20:27:25;101840.00;;;12.81
69857;BMP280;57147;53.582;10.112;2022-10-26T20:32:28;101844.03;;;12.73
69857;BMP280;57147;53.582;10.112;2022-10-26T20:37:29;101845.50;;;12.61
69857;BMP280;57147;53.582;10.112;2022-10-26T20:42:31;101835.38;;;12.58
69857;BMP280;57147;53.582;10.112;2022-10-26T20:47:35;101861.63;;;12.35
69857;BMP280;57147;53.582;10.112;2022-10-26T20:52:37;101850.13;;;12.40
69857;BMP280;57147;53.582;10.112;2022-10-26T20:57:46;101846.97;;;12.38
69857;BMP280;57147;53.582;10.112;2022-10-26T21:02:54;101865.63;;;12.33
69857;BMP280;57147;53.582;10.112;2022-10-26T21:07:54;101855.28;;;12.26
69857;BMP280;57147;53.582;10.112;2022-10-26T21:12:55;101857.94;;;12.26
69857;BMP280;57147;53.582;10.112;2022-10-26T21:17:58;101872.84;;;12.27
69857;BMP280;57147;53.582;10.112;2022-10-26T21:22:59;101869.13;;;12.28
69857;BMP280;57147;53.582;10.112;2022-10-26T21:27:59;101887.22;;;12.26
69857;BMP280;57147;53.582;10.112;2022-10-26T21:33:02;101872.41;;;12.10
69857;BMP280;57147;53.582;10.112;2022-10-26T21:38:03;101879.31;;;12.11
69857;BMP280;57147;53.582;10.112;2022-10-26T21:43:04;101888.41;;;12.05
69857;BMP280;57147;53.582;10.112;2022-10-26T21:48:07;101884.16;;;12.04
69857;BMP280;57147;53.582;10.112;2022-10-26T21:53:08;101885.75;;;11.95
69857;BMP280;57147;53.582;10.112;2022-10-26T21:58:09;101884.69;;;11.96
69857;BMP280;57147;53.582;10.112;2022-10-26T22:03:12;101883.38;;;11.93
69857;BMP280;57147;53.582;10.112;2022-10-26T22:08:12;101886.34;;;11.87
69857;BMP280;57147;53.582;10.112;2022-10-26T22:13:13;101883.72;;;11.77
69857;BMP280;57147;53.582;10.112;2022-10-26T22:18:16;101884.25;;;11.74
69857;BMP280;57147;53.582;10.112;2022-10-26T22:23:17;101882.69;;;11.63
69857;BMP280;57147;53.582;10.112;2022-10-26T22:28:18;101890.13;;;11.61
69857;BMP280;57147;53.582;10.112;2022-10-26T22:33:21;101876.31;;;11.48
69857;BMP280;57147;53.582;10.112;2022-10-26T22:38:21;101887.47;;;11.61
69857;BMP280;57147;53.582;10.112;2022-10-26T22:43:22;101890.69;;;11.58
69857;BMP280;57147;53.582;10.112;2022-10-26T22:48:25;101892.28;;;11.59
69857;BMP280;57147;53.582;10.112;2022-10-26T22:53:26;101894.41;;;11.57
69857;BMP280;57147;53.582;10.112;2022-10-26T22:58:26;101894.91;;;11.64
69857;BMP280;57147;53.582;10.112;2022-10-26T23:03:30;101901.31;;;11.58
69857;BMP280;57147;53.582;10.112;2022-10-26T23:08:31;101907.69;;;11.62
69857;BMP280;57147;53.582;10.112;2022-10-26T23:13:31;101926.31;;;11.57
69857;BMP280;57147;53.582;10.112;2022-10-26T23:18:35;101924.72;;;11.61
69857;BMP280;57147;53.582;10.112;2022-10-26T23:23:36;101926.31;;;11.67
69857;BMP280;57147;53.582;10.112;2022-10-26T23:28:37;101908.75;;;11.61
69857;BMP280;57147;53.582;10.112;2022-10-26T23:33:40;101919.94;;;11.63
69857;BMP280;57147;53.582;10.112;2022-10-26T23:38:41;101922.31;;;11.49
69857;BMP280;57147;53.582;10.112;2022-10-26T23:43:42;101937.75;;;11.42
69857;BMP280;57147;53.582;10.112;2022-10-26T23:48:45;101940.69;;;11.35
69857;BMP280;57147;53.582;10.112;2022-10-26T23:53:45;101933.78;;;11.39
69857;BMP280;57147;53.582;10.112;2022-10-26T23:58:48;101955.31;;;11.38
